createdAt,value
2018-02-22T11:40:49.076Z,102179.27
2018-02-22T11:43:16.137Z,102177.58
2018-02-22T11:45:41.998Z,102174.30
2018-02-22T11:48:07.911Z,102167.02
2018-02-22T11:50:33.776Z,102167.00
2018-02-22T11:52:59.807Z,102164.03
2018-02-22T11:55:25.740Z,102163.77
2018-02-22T11:57:51.629Z,102163.94
2018-02-22T12:00:17.480Z,102158.48
2018-02-22T12:02:43.357Z,102159.84
2018-02-22T12:05:09.453Z,102156.68
2018-02-22T12:07:35.350Z,102152.37
2018-02-22T12:10:01.340Z,102159.34
2018-02-22T12:12:27.239Z,102152.80
2018-02-22T12:14:53.126Z,102150.14
2018-02-22T12:17:19.162Z,102155.13
2018-02-22T12:19:45.036Z,102143.02
2018-02-22T12:22:10.917Z,102145.02
2018-02-22T12:24:37.230Z,102140.92
2018-02-22T12:27:03.102Z,102143.28
2018-02-22T12:29:29.084Z,102142.67
2018-02-22T12:31:55.024Z,102138.59
2018-02-22T12:34:20.895Z,102138.30
2018-02-22T12:36:46.746Z,102135.08
2018-02-22T12:39:12.710Z,102131.97
2018-02-22T12:41:38.748Z,102129.54
2018-02-22T12:44:04.701Z,102128.44
2018-02-22T12:46:30.601Z,102121.73
2018-02-22T12:48:56.464Z,102118.10
2018-02-22T12:51:22.338Z,102115.63
2018-02-22T12:53:48.414Z,102120.53
2018-02-22T12:56:15.312Z,102117.81
2018-02-22T12:58:41.171Z,102120.69
2018-02-22T13:01:07.068Z,102111.22
2018-02-22T13:03:32.946Z,102108.02
2018-02-22T13:05:58.965Z,102109.30
2018-02-22T13:08:24.888Z,102111.75
2018-02-22T13:10:50.753Z,102101.34
2018-02-22T13:13:16.613Z,102110.17
2018-02-22T13:15:42.562Z,102098.19
2018-02-22T13:18:08.570Z,102099.34
2018-02-22T13:20:34.482Z,102096.76
2018-02-22T13:23:00.393Z,102095.40
2018-02-22T13:25:26.253Z,102089.62
2018-02-22T13:27:52.116Z,102093.63
2018-02-22T13:30:18.149Z,102085.73
2018-02-22T13:32:56.330Z,102086.41
2018-02-22T13:35:22.341Z,102075.66
2018-02-22T13:40:53.157Z,102077.37
2018-02-22T13:43:19.079Z,102072.53
2018-02-22T13:45:44.941Z,102072.67
2018-02-22T13:48:10.958Z,102070.43
2018-02-22T13:50:49.189Z,102066.98
2018-02-22T13:53:15.250Z,102066.72
2018-02-22T13:55:41.108Z,102065.13
2018-02-22T13:58:06.970Z,102060.30
2018-02-22T14:00:45.154Z,102064.15
2018-02-22T14:03:11.116Z,102058.78
2018-02-22T14:05:37.109Z,102067.14
2018-02-22T14:08:03.115Z,102060.66
2018-02-22T14:10:28.976Z,102056.87
2018-02-22T14:12:54.871Z,102062.45
2018-02-22T14:15:20.806Z,102062.91
2018-02-22T14:17:46.814Z,102062.59
2018-02-22T14:20:12.676Z,102062.50
2018-02-22T14:22:38.637Z,102057.99
2018-02-22T14:25:04.505Z,102052.81
2018-02-22T14:27:30.380Z,102057.05
2018-02-22T14:29:56.427Z,102055.88
2018-02-22T14:32:22.309Z,102057.62
2018-02-22T14:34:48.206Z,102053.04
2018-02-22T14:37:14.138Z,102042.57
2018-02-22T14:39:39.997Z,102048.20
2018-02-22T14:42:05.988Z,102056.83
2018-02-22T14:44:31.910Z,102053.37
2018-02-22T14:46:57.796Z,102061.59
2018-02-22T14:49:23.666Z,102060.73
2018-02-22T14:51:49.963Z,102057.75
2018-02-22T14:54:16.004Z,102060.45
2018-02-22T14:56:41.888Z,102057.86
2018-02-22T14:59:07.867Z,102052.27
2018-02-22T15:01:33.719Z,102050.94
2018-02-22T15:03:59.585Z,102054.75
2018-02-22T15:06:25.951Z,102062.59
2018-02-22T15:08:51.826Z,102062.34
2018-02-22T15:11:17.738Z,102060.90
2018-02-22T15:13:43.692Z,102065.66
2018-02-22T15:16:09.581Z,102054.80
2018-02-22T15:18:35.596Z,102060.63
2018-02-22T15:21:01.499Z,102060.23
2018-02-22T15:23:27.362Z,102070.13
2018-02-22T15:25:53.229Z,102066.26
2018-02-22T15:28:19.438Z,102067.63
2018-02-22T15:30:45.440Z,102067.95
2018-02-22T15:33:11.300Z,102063.41
2018-02-22T15:35:37.192Z,102067.13
2018-02-22T15:38:03.071Z,102064.56
2018-02-22T15:40:28.936Z,102072.35
2018-02-22T15:42:54.994Z,102065.41
2018-02-22T15:45:20.856Z,102068.09
2018-02-22T15:47:47.646Z,102058.45
2018-02-22T15:50:13.650Z,102054.82
2018-02-22T15:52:39.536Z,102061.39
2018-02-22T15:55:05.528Z,102066.16
2018-02-22T15:57:31.438Z,102068.27
2018-02-22T15:59:57.284Z,102064.78
2018-02-22T16:02:23.154Z,102072.47
2018-02-22T16:04:49.045Z,102067.75
2018-02-22T16:07:15.112Z,102070.27
2018-02-22T16:09:41.008Z,102063.64
2018-02-22T16:12:06.900Z,102064.41
2018-02-22T16:14:32.744Z,102073.28
2018-02-22T16:16:58.584Z,102068.31
2018-02-22T16:19:24.596Z,102063.84
2018-02-22T16:21:50.457Z,102067.30
2018-02-22T16:24:16.305Z,102059.42
2018-02-22T16:26:42.243Z,102067.77
2018-02-22T16:29:08.089Z,102061.62
2018-02-22T16:31:34.083Z,102065.25
2018-02-22T16:33:59.972Z,102067.20
2018-02-22T16:36:25.912Z,102072.83
2018-02-22T16:38:51.787Z,102073.74
2018-02-22T16:41:17.716Z,102074.69
2018-02-22T16:43:43.726Z,102079.70
2018-02-22T16:46:09.580Z,102079.70
2018-02-22T16:48:35.470Z,102083.55
2018-02-22T16:51:01.338Z,102077.14
2018-02-22T16:53:27.230Z,102077.02
2018-02-22T16:55:53.335Z,102082.32
2018-02-22T16:58:19.268Z,102080.49
2018-02-22T17:00:45.156Z,102079.93
2018-02-22T17:03:11.727Z,102078.43
2018-02-22T17:05:37.639Z,102086.00
2018-02-22T17:08:03.636Z,102089.12
2018-02-22T17:10:29.563Z,102089.98
2018-02-22T17:12:55.404Z,102089.77
2018-02-22T17:15:21.320Z,102082.22
2018-02-22T17:17:47.222Z,102086.02
2018-02-22T17:20:13.215Z,102089.61
2018-02-22T17:22:39.096Z,102087.08
2018-02-22T17:25:05.032Z,102088.19
2018-02-22T17:27:37.088Z,102088.00
2018-02-22T17:30:09.140Z,102082.85
2018-02-22T17:32:35.080Z,102073.31
2018-02-22T17:35:00.958Z,102087.38
2018-02-22T17:37:27.065Z,102091.23
2018-02-22T17:40:02.926Z,102086.75
2018-02-22T17:42:30.751Z,102083.09
2018-02-22T17:44:56.775Z,102084.86
2018-02-22T17:47:22.761Z,102093.39
2018-02-22T17:49:48.697Z,102093.57
2018-02-22T17:52:14.574Z,102090.38
2018-02-22T17:54:42.378Z,102093.89
2018-02-22T17:57:09.676Z,102095.84
2018-02-22T17:59:36.176Z,102093.28
2018-02-22T18:02:02.095Z,102098.95
2018-02-22T18:04:28.648Z,102098.89
2018-02-22T18:06:57.923Z,102103.69
2018-02-22T18:09:23.958Z,102104.58
2018-02-22T18:11:49.882Z,102108.51
2018-02-22T18:14:15.782Z,102108.92
2018-02-22T18:16:41.731Z,102111.65
2018-02-22T18:19:07.685Z,102114.20
2018-02-22T18:21:33.693Z,102117.57
2018-02-22T18:23:59.540Z,102118.22
2018-02-22T18:26:25.452Z,102118.88
2018-02-22T18:28:51.334Z,102122.41
2018-02-22T18:31:17.204Z,102122.08
2018-02-22T18:33:43.278Z,102124.02
2018-02-22T18:36:09.160Z,102135.94
2018-02-22T18:38:41.134Z,102127.63
2018-02-22T18:41:07.058Z,102124.56
2018-02-22T18:43:39.288Z,102119.38
2018-02-22T18:46:05.302Z,102116.11
2018-02-22T18:48:31.395Z,102123.81
2018-02-22T18:50:57.725Z,102120.47
2018-02-22T18:53:23.612Z,102132.26
2018-02-22T18:55:49.931Z,102132.26
2018-02-22T18:58:16.417Z,102127.55
2018-02-22T19:00:42.296Z,102121.50
2018-02-22T19:03:08.197Z,102125.65
2018-02-22T19:05:34.100Z,102124.22
2018-02-22T19:07:59.948Z,102127.42
2018-02-22T19:10:25.992Z,102131.06
2018-02-22T19:12:51.840Z,102118.94
2018-02-22T19:15:17.694Z,102128.55
2018-02-22T19:17:43.622Z,102128.00
2018-02-22T19:20:09.497Z,102125.65
2018-02-22T19:22:35.533Z,102117.58
2018-02-22T19:25:01.454Z,102118.60
2018-02-22T19:27:27.325Z,102121.59
2018-02-22T19:29:53.178Z,102119.99
2018-02-22T19:32:19.093Z,102116.34
2018-02-22T19:34:45.224Z,102117.38
2018-02-22T19:37:11.097Z,102116.66
2018-02-22T19:39:37.339Z,102112.88
2018-02-22T19:42:03.202Z,102113.53
2018-02-22T19:44:29.057Z,102106.14
2018-02-22T19:46:55.122Z,102108.15
2018-02-22T19:49:20.980Z,102115.59
2018-02-22T19:51:46.851Z,102113.59
2018-02-22T19:54:12.750Z,102119.78
2018-02-22T19:56:38.605Z,102127.84
2018-02-22T19:59:04.613Z,102122.47
2018-02-22T20:01:30.524Z,102123.62
2018-02-22T20:03:56.381Z,102122.35
2018-02-22T20:06:22.243Z,102116.48
2018-02-22T20:08:48.194Z,102119.77
2018-02-22T20:11:14.225Z,102117.52
2018-02-22T20:13:40.150Z,102119.92
2018-02-22T20:16:06.070Z,102120.91
2018-02-22T20:18:31.924Z,102124.68
2018-02-22T20:20:57.972Z,102127.70
2018-02-22T20:23:24.036Z,102132.70
2018-02-22T20:25:49.889Z,102130.73
2018-02-22T20:28:15.766Z,102128.84
2018-02-22T20:30:41.753Z,102127.84
2018-02-22T20:33:07.638Z,102124.86
2018-02-22T20:35:33.858Z,102121.42
2018-02-22T20:37:59.765Z,102124.86
2018-02-22T20:40:25.611Z,102125.63
2018-02-22T20:42:51.526Z,102132.48
2018-02-22T20:45:17.555Z,102124.70
2018-02-22T20:47:43.584Z,102124.30
2018-02-22T20:50:09.455Z,102130.50
2018-02-22T20:52:37.318Z,102128.25
2018-02-22T20:55:07.216Z,102134.27
2018-02-22T20:57:33.094Z,102142.34
2018-02-22T20:59:59.213Z,102142.34
2018-02-22T21:02:25.093Z,102149.63
2018-02-22T21:04:50.969Z,102138.84
2018-02-22T21:07:16.880Z,102144.28
2018-02-22T21:09:42.744Z,102144.80
2018-02-22T21:12:08.741Z,102143.84
2018-02-22T21:14:34.658Z,102137.27
2018-02-22T21:17:00.534Z,102148.60
2018-02-22T21:19:26.409Z,102151.26
2018-02-22T21:21:53.181Z,102152.41
2018-02-22T21:24:19.185Z,102140.62
2018-02-22T21:26:45.050Z,102144.72
2018-02-22T21:29:10.950Z,102153.19
2018-02-22T21:31:36.814Z,102154.64
2018-02-22T21:34:02.664Z,102155.73
2018-02-22T21:36:28.714Z,102157.84
2018-02-22T21:38:54.583Z,102160.29
2018-02-22T21:41:20.441Z,102158.73
2018-02-22T21:43:46.351Z,102151.56
2018-02-22T21:46:12.218Z,102160.28
2018-02-22T21:48:38.276Z,102152.83
2018-02-22T21:51:04.190Z,102146.77
2018-02-22T21:53:30.075Z,102152.87
2018-02-22T21:55:55.931Z,102155.45
2018-02-22T21:58:21.848Z,102152.42
2018-02-22T22:00:47.840Z,102150.03
2018-02-22T22:03:13.728Z,102158.71
2018-02-22T22:05:39.658Z,102161.92
2018-02-22T22:08:05.526Z,102161.03
2018-02-22T22:10:31.394Z,102152.42
2018-02-22T22:12:57.452Z,102154.53
2018-02-22T22:15:23.379Z,102151.77
2018-02-22T22:17:49.227Z,102157.97
2018-02-22T22:20:15.124Z,102160.70
2018-02-22T22:22:40.985Z,102156.38
2018-02-22T22:25:07.027Z,102165.50
2018-02-22T22:27:32.917Z,102162.29
2018-02-22T22:29:58.767Z,102159.30
2018-02-22T22:32:25.608Z,102163.28
2018-02-22T22:34:51.524Z,102152.44
2018-02-22T22:37:17.524Z,102155.02
2018-02-22T22:39:43.384Z,102152.36
2018-02-22T22:42:09.624Z,102159.01
2018-02-22T22:44:35.493Z,102163.44
2018-02-22T22:47:01.343Z,102162.66
2018-02-22T22:49:27.392Z,102165.77
2018-02-22T22:51:53.277Z,102161.45
2018-02-22T22:54:19.148Z,102159.52
2018-02-22T22:56:45.052Z,102162.70
2018-02-22T22:59:10.910Z,102150.96
2018-02-22T23:01:37.740Z,102146.34
2018-02-22T23:04:03.637Z,102143.95
2018-02-22T23:06:29.548Z,102151.22
2018-02-22T23:08:55.410Z,102157.91
2018-02-22T23:11:21.642Z,102158.34
2018-02-22T23:13:47.656Z,102156.25
2018-02-22T23:16:13.548Z,102154.00
2018-02-22T23:18:39.463Z,102151.38
2018-02-22T23:21:05.304Z,102151.19
2018-02-22T23:23:31.221Z,102149.72
2018-02-22T23:25:57.299Z,102146.58
2018-02-22T23:28:23.167Z,102148.45
2018-02-22T23:30:49.493Z,102146.50
2018-02-22T23:33:16.052Z,102145.06
2018-02-22T23:35:42.422Z,102137.56
2018-02-22T23:38:09.013Z,102132.54
2018-02-22T23:40:50.417Z,102128.34
2018-02-22T23:43:16.639Z,102141.44
2018-02-22T23:45:42.912Z,102151.42
2018-02-22T23:48:09.413Z,102152.57
2018-02-22T23:50:35.865Z,102154.23
2018-02-22T23:53:02.289Z,102152.79
2018-02-22T23:55:28.396Z,102143.28
2018-02-22T23:57:54.332Z,102136.88
